Terminal Aerodrome Forecast
Issued by NWS

Home | Current Version | Previous Version | Text Only | Print | Product List | Glossary On
Versions: 1 2 3 4 5 6 7 8 9 10 11 12 13
000
FTUS42 TJSJ 210538
TAFJMZ
TAF
TJMZ 210538Z 2106/2206 07006KT P6SM VCSH SCT040
     FM211200 10008KT P6SM FEW030
     FM211600 VRB10KT P6SM VCTS SCT025CB BKN050
     FM212200 06006KT P6SM SCT040
      AMD NOT SKED=

USA.gov is the U.S. government's official web portal to all federal, state and local government web resources and services.